Kasbeer, Illinois
Current Conditions -  °F | °C
As of 11:35 AM on Monday 22 Dec 2014 (Local Time) from KVYS Reporting Station
Drizzle Drizzle  
Wind Chill: 25°   Ceiling: 700
Heat Index: 35°   Visibility: 2.5mi
Dew Point: 33°   Wind: 17mph
Humidity: 93%   Direction: 110°ESE
Pressure: 29.75"   Gusts: NA
Location:  41.5°N, 89.46°W
Report Text: KVYS 221735Z AUTO 11015KT 2 1/2SM DZ OVC007 02/01 A2975 RMK AO2 T00180008
Loading
Personal Weather Stations






























Interactive Weather Map New forecast layout! Learn more

10-Day Weather Forecast

Advertisements
Track Severe Weather on mobile